createdAt,value
2022-11-10T00:00:43.136Z,97240.63
2022-11-10T00:01:44.943Z,97243.22
2022-11-10T00:02:46.908Z,97254.66
2022-11-10T00:03:49.007Z,97252.91
2022-11-10T00:04:50.905Z,97258.09
2022-11-10T00:05:52.631Z,97249.97
2022-11-10T00:06:54.552Z,97255.66
2022-11-10T00:07:56.700Z,97255.97
2022-11-10T00:08:58.633Z,97246.44
2022-11-10T00:10:00.516Z,97255.16
2022-11-10T00:11:09.384Z,97253.56
2022-11-10T00:12:11.272Z,97249.50
2022-11-10T00:13:13.050Z,97250.47
2022-11-10T00:14:33.622Z,97243.34
2022-11-10T00:15:53.816Z,97251.28
2022-11-10T00:17:01.239Z,97244.00
2022-11-10T00:18:03.924Z,97238.69
2022-11-10T00:19:05.749Z,97243.84
2022-11-10T00:20:08.064Z,97239.16
2022-11-10T00:21:10.851Z,97242.38
2022-11-10T00:22:12.658Z,97238.19
2022-11-10T00:23:14.430Z,97248.69
2022-11-10T00:24:16.273Z,97240.94
2022-11-10T00:25:18.097Z,97248.69
2022-11-10T00:26:20.360Z,97245.16
2022-11-10T00:27:22.170Z,97240.78
2022-11-10T00:28:23.957Z,97252.25
2022-11-10T00:29:25.814Z,97249.69
2022-11-10T00:30:27.616Z,97253.88
2022-11-10T00:31:29.547Z,97251.63
2022-11-10T00:32:31.396Z,97246.91
2022-11-10T00:33:37.157Z,97247.91
2022-11-10T00:34:38.986Z,97255.97
2022-11-10T00:35:40.764Z,97256.16
2022-11-10T00:36:43.315Z,97255.50
2022-11-10T00:37:45.096Z,97255.50
2022-11-10T00:38:46.987Z,97252.72
2022-11-10T00:39:48.903Z,97260.03
2022-11-10T00:40:50.712Z,97255.31
2022-11-10T00:41:52.567Z,97252.59
2022-11-10T00:42:54.436Z,97251.44
2022-11-10T00:43:56.471Z,97248.69
2022-11-10T00:44:58.356Z,97256.97
2022-11-10T00:46:00.217Z,97255.66
2022-11-10T00:47:02.079Z,97251.63
2022-11-10T00:48:03.935Z,97255.81
2022-11-10T00:49:05.767Z,97248.25
2022-11-10T00:50:07.976Z,97255.03
2022-11-10T00:51:15.536Z,97257.44
2022-11-10T00:52:17.317Z,97254.72
2022-11-10T00:53:19.695Z,97257.44
2022-11-10T00:54:21.937Z,97259.41
2022-11-10T00:55:23.719Z,97262.78
2022-11-10T00:56:25.751Z,97263.28
2022-11-10T00:57:27.555Z,97264.56
2022-11-10T00:58:29.412Z,97264.06
2022-11-10T00:59:31.179Z,97268.94
2022-11-10T01:00:33.070Z,97270.69
2022-11-10T01:01:35.020Z,97267.00
2022-11-10T01:02:36.872Z,97267.50
2022-11-10T01:03:38.842Z,97270.72
2022-11-10T01:04:40.646Z,97273.31
2022-11-10T01:05:43.035Z,97271.03
2022-11-10T01:06:44.987Z,97275.06
2022-11-10T01:07:46.841Z,97276.69
2022-11-10T01:08:48.752Z,97281.41
2022-11-10T01:09:50.563Z,97280.28
2022-11-10T01:10:52.340Z,97285.16
2022-11-10T01:11:54.119Z,97294.03
2022-11-10T01:12:55.890Z,97296.28
2022-11-10T01:13:57.848Z,97289.97
2022-11-10T01:14:59.606Z,97287.22
2022-11-10T01:16:08.408Z,97290.97
2022-11-10T01:17:10.138Z,97286.72
2022-11-10T01:18:11.948Z,97290.16
2022-11-10T01:19:13.829Z,97292.41
2022-11-10T01:20:15.700Z,97293.03
2022-11-10T01:21:17.734Z,97299.22
2022-11-10T01:22:19.698Z,97305.84
2022-11-10T01:23:21.789Z,97310.88
2022-11-10T01:24:23.882Z,97311.34
2022-11-10T01:25:25.737Z,97318.94
2022-11-10T01:26:27.588Z,97313.44
2022-11-10T01:27:29.400Z,97318.28
2022-11-10T01:28:32.031Z,97316.34
2022-11-10T01:29:33.876Z,97318.28
2022-11-10T01:30:35.728Z,97310.84
2022-11-10T01:31:37.688Z,97318.00
2022-11-10T01:32:40.526Z,97313.59
2022-11-10T01:33:42.461Z,97314.25
2022-11-10T01:34:44.369Z,97314.09
2022-11-10T01:35:46.217Z,97314.25
2022-11-10T01:36:48.033Z,97310.84
2022-11-10T01:37:51.821Z,97312.31
2022-11-10T01:38:53.819Z,97310.34
2022-11-10T01:39:55.810Z,97309.22
2022-11-10T01:40:58.281Z,97320.56
2022-11-10T01:42:00.055Z,97323.16
2022-11-10T01:43:01.919Z,97316.66
2022-11-10T01:44:33.058Z,97316.97
2022-11-10T01:45:44.258Z,97317.28
2022-11-10T01:46:46.051Z,97314.53
2022-11-10T01:47:48.256Z,97316.00
2022-11-10T01:48:52.492Z,97313.25
2022-11-10T01:49:54.567Z,97310.47
2022-11-10T01:50:58.166Z,97314.69
2022-11-10T01:52:13.912Z,97318.91
2022-11-10T01:53:19.246Z,97316.47
2022-11-10T01:54:24.092Z,97318.25
2022-11-10T01:55:26.289Z,97322.47
2022-11-10T01:56:30.208Z,97329.28
2022-11-10T01:57:32.505Z,97322.47
2022-11-10T01:58:40.418Z,97332.66
2022-11-10T01:59:50.977Z,97325.69
2022-11-10T02:00:53.357Z,97332.50
2022-11-10T02:01:57.465Z,97327.31
2022-11-10T02:03:37.574Z,97329.41
2022-11-10T02:04:40.242Z,97323.44
2022-11-10T02:05:43.966Z,97324.06
2022-11-10T02:06:46.993Z,97325.34
2022-11-10T02:07:49.676Z,97327.94
2022-11-10T02:08:51.837Z,97320.97
2022-11-10T02:09:53.950Z,97329.53
2022-11-10T02:10:55.712Z,97326.78
2022-11-10T02:11:57.797Z,97330.81
2022-11-10T02:12:59.725Z,97333.25
2022-11-10T02:14:02.051Z,97325.81
2022-11-10T02:15:08.385Z,97335.06
2022-11-10T02:16:11.031Z,97335.22
2022-11-10T02:17:13.124Z,97341.19
2022-11-10T02:18:14.956Z,97332.28
2022-11-10T02:19:25.032Z,97342.50
2022-11-10T02:20:26.835Z,97341.69
2022-11-10T02:21:28.776Z,97346.88
2022-11-10T02:22:34.027Z,97339.91
2022-11-10T02:23:35.886Z,97346.53
2022-11-10T02:24:37.752Z,97344.56
2022-11-10T02:25:39.562Z,97341.34
2022-11-10T02:26:44.906Z,97341.19
2022-11-10T02:27:46.791Z,97345.72
2022-11-10T02:28:49.185Z,97348.03
2022-11-10T02:29:50.985Z,97344.47
2022-11-10T02:30:53.351Z,97351.59
2022-11-10T02:31:55.343Z,97348.22
2022-11-10T02:32:57.137Z,97345.63
2022-11-10T02:33:58.978Z,97362.78
2022-11-10T02:35:00.825Z,97353.03
2022-11-10T02:36:02.981Z,97357.13
2022-11-10T02:37:05.027Z,97357.44
2022-11-10T02:38:06.926Z,97367.16
2022-11-10T02:39:08.806Z,97361.00
2022-11-10T02:40:10.780Z,97366.84
2022-11-10T02:41:12.583Z,97366.34
2022-11-10T02:42:14.487Z,97370.38
2022-11-10T02:43:17.373Z,97362.44
2022-11-10T02:44:19.206Z,97360.00
2022-11-10T02:45:21.070Z,97371.69
2022-11-10T02:46:22.911Z,97361.00
2022-11-10T02:47:24.687Z,97368.59
2022-11-10T02:48:26.547Z,97362.09
2022-11-10T02:49:28.400Z,97362.59
2022-11-10T02:50:30.226Z,97365.84
2022-11-10T02:51:31.995Z,97361.28
2022-11-10T02:52:33.861Z,97364.34
2022-11-10T02:53:35.632Z,97362.25
2022-11-10T02:54:37.511Z,97368.88
2022-11-10T02:55:39.338Z,97365.97
2022-11-10T02:56:41.169Z,97360.28
2022-11-10T02:57:42.967Z,97367.88
2022-11-10T02:58:44.753Z,97365.94
2022-11-10T02:59:46.660Z,97370.94
2022-11-10T03:00:48.433Z,97367.53
2022-11-10T03:01:50.330Z,97372.88
2022-11-10T03:02:59.071Z,97376.47
2022-11-10T03:04:00.869Z,97372.09
2022-11-10T03:05:02.736Z,97379.72
2022-11-10T03:06:04.578Z,97379.72
2022-11-10T03:07:06.511Z,97380.34
2022-11-10T03:08:08.448Z,97374.16
2022-11-10T03:09:10.301Z,97369.63
2022-11-10T03:10:12.023Z,97374.81
2022-11-10T03:11:13.774Z,97376.75
2022-11-10T03:12:15.678Z,97377.75
2022-11-10T03:13:17.606Z,97376.59
2022-11-10T03:14:19.370Z,97379.03
2022-11-10T03:15:21.655Z,97384.22
2022-11-10T03:16:23.517Z,97388.28
2022-11-10T03:17:25.347Z,97391.03
2022-11-10T03:18:27.160Z,97383.25
2022-11-10T03:19:28.987Z,97381.28
2022-11-10T03:20:30.819Z,97379.53
2022-11-10T03:21:32.604Z,97380.31
2022-11-10T03:22:34.543Z,97382.59
2022-11-10T03:23:36.471Z,97381.31
2022-11-10T03:24:38.250Z,97386.69
2022-11-10T03:25:40.140Z,97384.09
2022-11-10T03:26:42.002Z,97382.16
2022-11-10T03:27:43.864Z,97387.16
2022-11-10T03:28:45.673Z,97383.44
2022-11-10T03:29:47.518Z,97391.84
2022-11-10T03:30:49.438Z,97391.50
2022-11-10T03:31:51.302Z,97390.34
2022-11-10T03:32:53.190Z,97396.53
2022-11-10T03:33:54.962Z,97398.66
2022-11-10T03:34:56.808Z,97403.84
2022-11-10T03:35:58.663Z,97412.25
2022-11-10T03:37:00.452Z,97411.47
2022-11-10T03:38:02.334Z,97414.22
2022-11-10T03:39:04.595Z,97416.66
2022-11-10T03:40:06.698Z,97414.69
2022-11-10T03:41:23.869Z,97410.94
2022-11-10T03:42:25.762Z,97420.53
2022-11-10T03:43:27.577Z,97411.75
2022-11-10T03:44:29.490Z,97414.34
2022-11-10T03:45:31.625Z,97417.28
2022-11-10T03:46:33.459Z,97418.09
2022-11-10T03:47:35.222Z,97420.69
2022-11-10T03:48:37.677Z,97428.63
2022-11-10T03:49:39.531Z,97426.38
2022-11-10T03:50:42.179Z,97432.38
2022-11-10T03:51:44.092Z,97431.91
2022-11-10T03:52:47.111Z,97436.44
2022-11-10T03:53:49.061Z,97439.69
2022-11-10T03:54:50.804Z,97435.97
2022-11-10T03:55:52.638Z,97437.72
2022-11-10T03:56:54.832Z,97443.75
2022-11-10T03:57:56.726Z,97433.19
2022-11-10T03:58:58.567Z,97445.84
2022-11-10T04:00:00.417Z,97448.28
2022-11-10T04:01:02.269Z,97451.66
2022-11-10T04:02:04.201Z,97445.19
2022-11-10T04:03:06.151Z,97452.97
2022-11-10T04:04:31.850Z,97454.94
2022-11-10T04:05:51.931Z,97452.34
2022-11-10T04:07:12.372Z,97453.78
2022-11-10T04:08:34.144Z,97455.59
2022-11-10T04:09:36.050Z,97453.78
2022-11-10T04:10:37.865Z,97457.19
2022-11-10T04:11:57.856Z,97464.50
2022-11-10T04:13:18.136Z,97465.28
2022-11-10T04:14:44.168Z,97458.47
2022-11-10T04:15:46.177Z,97459.78
2022-11-10T04:16:47.951Z,97461.72
2022-11-10T04:17:50.873Z,97460.13
2022-11-10T04:18:52.683Z,97463.53
2022-11-10T04:19:54.613Z,97464.31
2022-11-10T04:20:58.083Z,97463.69
2022-11-10T04:21:59.855Z,97467.28
2022-11-10T04:23:20.466Z,97467.28
2022-11-10T04:24:22.784Z,97475.34
2022-11-10T04:25:24.658Z,97475.34
2022-11-10T04:26:29.143Z,97476.00
2022-11-10T04:27:30.901Z,97469.19
2022-11-10T04:28:32.691Z,97477.78
2022-11-10T04:29:34.659Z,97482.00
2022-11-10T04:30:36.460Z,97490.59
2022-11-10T04:31:41.923Z,97494.16
2022-11-10T04:32:43.739Z,97488.81
2022-11-10T04:33:45.908Z,97488.66
2022-11-10T04:34:47.739Z,97481.03
2022-11-10T04:35:49.525Z,97492.22
2022-11-10T04:36:51.455Z,97499.03
2022-11-10T04:37:53.246Z,97493.69
2022-11-10T04:38:58.187Z,97491.72
2022-11-10T04:40:00.002Z,97486.38
2022-11-10T04:41:01.927Z,97484.75
2022-11-10T04:42:03.844Z,97493.53
2022-11-10T04:43:05.636Z,97487.34
2022-11-10T04:44:07.771Z,97501.97
2022-11-10T04:45:09.807Z,97494.16
2022-11-10T04:46:20.435Z,97490.75
2022-11-10T04:47:22.442Z,97493.53
2022-11-10T04:48:24.710Z,97487.50
2022-11-10T04:49:26.574Z,97486.53
2022-11-10T04:50:28.343Z,97495.28
2022-11-10T04:51:31.929Z,97497.25
2022-11-10T04:52:33.807Z,97500.97
2022-11-10T04:53:35.643Z,97495.78
2022-11-10T04:54:37.403Z,97503.75
2022-11-10T04:55:39.859Z,97502.78
2022-11-10T04:56:41.750Z,97512.50
2022-11-10T04:57:43.543Z,97511.53
2022-11-10T04:58:45.934Z,97517.34
2022-11-10T04:59:47.758Z,97519.63
2022-11-10T05:00:49.561Z,97519.47
2022-11-10T05:01:51.366Z,97516.06
2022-11-10T05:02:53.177Z,97520.44
2022-11-10T05:03:55.446Z,97528.22
2022-11-10T05:04:57.332Z,97528.22
2022-11-10T05:05:59.179Z,97527.25
2022-11-10T05:07:01.094Z,97525.31
2022-11-10T05:08:03.808Z,97524.31
2022-11-10T05:09:05.728Z,97531.47
2022-11-10T05:10:07.658Z,97529.88
2022-11-10T05:11:09.530Z,97537.31
2022-11-10T05:12:11.334Z,97537.31
2022-11-10T05:13:13.158Z,97537.16
2022-11-10T05:14:15.007Z,97518.50
2022-11-10T05:15:16.789Z,97529.03
2022-11-10T05:16:18.633Z,97528.88
2022-11-10T05:17:20.481Z,97530.84
2022-11-10T05:18:22.236Z,97525.31
2022-11-10T05:19:24.151Z,97537.31
2022-11-10T05:20:26.155Z,97532.13
2022-11-10T05:21:27.975Z,97536.66
2022-11-10T05:22:29.755Z,97534.72
2022-11-10T05:23:40.878Z,97535.38
2022-11-10T05:24:42.790Z,97536.00
2022-11-10T05:25:45.106Z,97535.84
2022-11-10T05:26:46.858Z,97537.00
2022-11-10T05:27:48.676Z,97541.19
2022-11-10T05:28:50.519Z,97534.06
2022-11-10T05:29:52.474Z,97538.28
2022-11-10T05:30:54.309Z,97538.28
2022-11-10T05:31:56.159Z,97535.69
2022-11-10T05:32:58.186Z,97543.47
2022-11-10T05:33:59.987Z,97548.69
2022-11-10T05:35:01.854Z,97545.44
2022-11-10T05:36:04.365Z,97545.44
2022-11-10T05:37:06.147Z,97548.84
2022-11-10T05:38:08.331Z,97545.44
2022-11-10T05:39:10.096Z,97554.03
2022-11-10T05:40:12.013Z,97552.72
2022-11-10T05:41:13.813Z,97555.16
2022-11-10T05:42:15.688Z,97554.97
2022-11-10T05:43:17.526Z,97559.19
2022-11-10T05:44:19.418Z,97561.63
2022-11-10T05:45:22.711Z,97560.66
2022-11-10T05:46:24.483Z,97565.84
2022-11-10T05:47:26.232Z,97564.06
2022-11-10T05:48:28.066Z,97564.88
2022-11-10T05:49:29.852Z,97566.50
2022-11-10T05:50:31.739Z,97565.84
2022-11-10T05:51:33.593Z,97576.22
2022-11-10T05:52:35.797Z,97578.66
2022-11-10T05:53:37.590Z,97576.22
2022-11-10T05:54:39.407Z,97576.22
2022-11-10T05:55:41.378Z,97583.06
2022-11-10T05:56:43.213Z,97578.66
2022-11-10T05:57:46.017Z,97570.53
2022-11-10T05:58:47.804Z,97579.16
2022-11-10T05:59:49.733Z,97581.75
2022-11-10T06:00:51.617Z,97582.88
2022-11-10T06:01:53.451Z,97590.50
2022-11-10T06:03:01.445Z,97585.31
2022-11-10T06:04:03.316Z,97590.34
2022-11-10T06:05:05.374Z,97603.97
2022-11-10T06:06:07.347Z,97599.56
2022-11-10T06:07:09.309Z,97596.03
2022-11-10T06:08:11.701Z,97592.59
2022-11-10T06:09:13.703Z,97603.16
2022-11-10T06:10:15.711Z,97603.16
2022-11-10T06:11:17.621Z,97602.81
2022-11-10T06:12:19.456Z,97613.06
2022-11-10T06:13:21.659Z,97613.06
2022-11-10T06:14:23.762Z,97615.81
2022-11-10T06:15:26.047Z,97611.75
2022-11-10T06:16:27.947Z,97620.34
2022-11-10T06:17:29.865Z,97627.34
2022-11-10T06:18:31.735Z,97625.69
2022-11-10T06:19:33.620Z,97628.47
2022-11-10T06:20:35.470Z,97628.47
2022-11-10T06:21:37.323Z,97631.09
2022-11-10T06:22:39.191Z,97626.84
2022-11-10T06:23:40.999Z,97637.22
2022-11-10T06:24:42.793Z,97640.81
2022-11-10T06:25:44.879Z,97643.22
2022-11-10T06:26:46.613Z,97640.63
2022-11-10T06:27:48.394Z,97645.66
2022-11-10T06:28:50.327Z,97641.28
2022-11-10T06:29:52.147Z,97641.94
2022-11-10T06:30:56.985Z,97643.72
2022-11-10T06:31:58.771Z,97646.16
2022-11-10T06:33:00.858Z,97652.97
2022-11-10T06:34:02.818Z,97655.41
2022-11-10T06:35:04.737Z,97652.66
2022-11-10T06:36:06.741Z,97657.69
2022-11-10T06:37:08.515Z,97654.09
2022-11-10T06:38:12.255Z,97659.13
2022-11-10T06:39:14.215Z,97666.13
2022-11-10T06:40:16.050Z,97669.53
2022-11-10T06:41:21.283Z,97665.13
2022-11-10T06:42:25.939Z,97665.97
2022-11-10T06:43:28.061Z,97666.78
2022-11-10T06:44:30.002Z,97671.97
2022-11-10T06:45:31.788Z,97671.81
2022-11-10T06:46:35.932Z,97670.97
2022-11-10T06:47:41.431Z,97682.19
2022-11-10T06:48:43.160Z,97687.38
2022-11-10T06:49:45.034Z,97680.41
2022-11-10T06:50:47.096Z,97688.03
2022-11-10T06:51:49.136Z,97691.75
2022-11-10T06:52:55.684Z,97684.78
2022-11-10T06:53:57.632Z,97697.59
2022-11-10T06:54:59.697Z,97687.53
2022-11-10T06:56:01.772Z,97691.25
2022-11-10T06:57:03.903Z,97702.47
2022-11-10T06:58:06.000Z,97706.03
2022-11-10T06:59:07.978Z,97699.03
2022-11-10T07:00:11.221Z,97696.28
2022-11-10T07:01:14.414Z,97700.53
2022-11-10T07:02:18.538Z,97713.16
2022-11-10T07:03:20.791Z,97705.38
2022-11-10T07:04:22.816Z,97709.94
2022-11-10T07:05:24.853Z,97701.19
2022-11-10T07:06:26.885Z,97707.81
2022-11-10T07:07:29.025Z,97704.72
2022-11-10T07:08:31.038Z,97708.97
2022-11-10T07:09:32.954Z,97717.72
2022-11-10T07:10:35.508Z,97710.91
2022-11-10T07:11:37.695Z,97709.44
2022-11-10T07:12:39.666Z,97710.25
2022-11-10T07:13:42.390Z,97719.00
2022-11-10T07:14:44.328Z,97727.44
2022-11-10T07:15:46.648Z,97721.31
2022-11-10T07:16:48.635Z,97722.91
2022-11-10T07:17:50.631Z,97723.41
2022-11-10T07:18:52.660Z,97734.28
2022-11-10T07:19:54.867Z,97731.03
2022-11-10T07:20:56.918Z,97725.84
2022-11-10T07:21:59.056Z,97721.16
2022-11-10T07:23:02.881Z,97731.03
2022-11-10T07:24:05.040Z,97729.25
2022-11-10T07:25:07.394Z,97736.53
2022-11-10T07:26:09.206Z,97734.59
2022-11-10T07:27:11.277Z,97733.00
2022-11-10T07:28:13.397Z,97728.75
2022-11-10T07:29:15.412Z,97728.09
2022-11-10T07:30:17.684Z,97729.75
2022-11-10T07:31:19.771Z,97735.75
2022-11-10T07:32:21.796Z,97741.75
2022-11-10T07:33:24.144Z,97740.63
2022-11-10T07:34:26.340Z,97738.84
2022-11-10T07:35:29.277Z,97741.75
2022-11-10T07:36:31.189Z,97740.13
2022-11-10T07:37:32.972Z,97747.78
2022-11-10T07:38:34.842Z,97752.13
2022-11-10T07:39:36.692Z,97747.78
2022-11-10T07:40:38.756Z,97741.75
2022-11-10T07:41:40.546Z,97745.97
2022-11-10T07:42:42.291Z,97745.00
2022-11-10T07:43:44.180Z,97747.44
2022-11-10T07:44:46.009Z,97749.53
2022-11-10T07:45:49.108Z,97757.16
2022-11-10T07:46:52.916Z,97751.81
2022-11-10T07:48:05.055Z,97754.06
2022-11-10T07:49:07.078Z,97755.88
2022-11-10T07:50:09.073Z,97754.06
2022-11-10T07:51:10.855Z,97760.91
2022-11-10T07:52:12.657Z,97761.56
2022-11-10T07:53:15.815Z,97758.81
2022-11-10T07:54:17.712Z,97768.69
2022-11-10T07:55:19.605Z,97764.97
2022-11-10T07:56:22.181Z,97763.00
2022-11-10T07:57:24.033Z,97760.41
2022-11-10T07:58:25.829Z,97764.81
2022-11-10T07:59:27.585Z,97766.75
2022-11-10T08:00:29.877Z,97775.19
2022-11-10T08:01:31.845Z,97768.06
2022-11-10T08:02:33.771Z,97772.09
2022-11-10T08:03:35.716Z,97773.91
2022-11-10T08:04:37.541Z,97774.84
2022-11-10T08:05:39.753Z,97783.63
2022-11-10T08:06:41.611Z,97775.34
2022-11-10T08:07:45.691Z,97772.25
2022-11-10T08:08:48.358Z,97782.66
2022-11-10T08:09:50.988Z,97784.94
2022-11-10T08:10:52.784Z,97781.19
2022-11-10T08:11:54.681Z,97783.00
2022-11-10T08:12:57.442Z,97786.09
2022-11-10T08:13:59.378Z,97784.94
2022-11-10T08:15:01.259Z,97794.19
2022-11-10T08:16:03.721Z,97795.81
2022-11-10T08:17:05.565Z,97798.59
2022-11-10T08:18:15.319Z,97796.94
2022-11-10T08:19:17.098Z,97798.59
2022-11-10T08:20:18.923Z,97798.59
2022-11-10T08:21:21.078Z,97800.53
2022-11-10T08:22:22.864Z,97798.59
2022-11-10T08:23:24.990Z,97809.47
2022-11-10T08:24:27.101Z,97801.53
2022-11-10T08:25:34.561Z,97801.53
2022-11-10T08:26:37.156Z,97804.44
2022-11-10T08:27:38.990Z,97808.31
2022-11-10T08:28:40.961Z,97810.13
2022-11-10T08:29:42.766Z,97814.16
2022-11-10T08:30:45.654Z,97812.22
2022-11-10T08:31:47.484Z,97813.53
2022-11-10T08:32:49.325Z,97811.91
2022-11-10T08:33:51.122Z,97811.09
2022-11-10T08:34:53.107Z,97818.72
2022-11-10T08:35:55.011Z,97822.63
2022-11-10T08:36:56.894Z,97824.41
2022-11-10T08:37:58.946Z,97830.41
2022-11-10T08:39:00.922Z,97827.50
2022-11-10T08:40:04.102Z,97830.09
2022-11-10T08:41:05.874Z,97835.13
2022-11-10T08:42:07.730Z,97837.56
2022-11-10T08:43:10.083Z,97841.81
2022-11-10T08:44:15.542Z,97831.72
2022-11-10T08:45:21.537Z,97837.72
2022-11-10T08:46:23.307Z,97835.75
2022-11-10T08:47:25.166Z,97836.91
2022-11-10T08:48:26.999Z,97847.31
2022-11-10T08:49:28.916Z,97841.31
2022-11-10T08:50:30.727Z,97845.50
2022-11-10T08:51:37.793Z,97849.59
2022-11-10T08:52:40.756Z,97847.47
2022-11-10T08:53:42.631Z,97852.50
2022-11-10T08:54:44.431Z,97858.34
2022-11-10T08:55:46.767Z,97859.50
2022-11-10T08:56:48.656Z,97854.28
2022-11-10T08:57:50.471Z,97857.03
2022-11-10T08:58:53.662Z,97854.44
2022-11-10T08:59:55.538Z,97853.00
2022-11-10T09:00:57.461Z,97858.34
2022-11-10T09:01:59.300Z,97858.03
2022-11-10T09:03:05.758Z,97857.69
2022-11-10T09:04:07.632Z,97860.78
2022-11-10T09:05:09.900Z,97874.44
2022-11-10T09:06:11.748Z,97875.75
2022-11-10T09:07:13.608Z,97868.44
2022-11-10T09:08:15.937Z,97869.91
2022-11-10T09:09:17.926Z,97870.69
2022-11-10T09:10:19.960Z,97880.13
2022-11-10T09:11:24.033Z,97879.78
2022-11-10T09:12:25.855Z,97880.44
2022-11-10T09:13:30.313Z,97881.75
2022-11-10T09:14:32.563Z,97881.59
2022-11-10T09:15:34.886Z,97886.94
2022-11-10T09:16:36.706Z,97881.44
2022-11-10T09:17:38.849Z,97887.59
2022-11-10T09:18:40.743Z,97889.06
2022-11-10T09:19:42.646Z,97890.53
2022-11-10T09:20:44.421Z,97890.53
2022-11-10T09:21:46.195Z,97889.56
2022-11-10T09:22:48.002Z,97891.03
2022-11-10T09:23:49.810Z,97887.59
2022-11-10T09:24:51.636Z,97889.09
2022-11-10T09:25:54.422Z,97893.13
2022-11-10T09:26:56.170Z,97884.34
2022-11-10T09:27:57.999Z,97896.69
2022-11-10T09:28:59.898Z,97897.84
2022-11-10T09:30:01.773Z,97902.25
2022-11-10T09:31:03.586Z,97897.84
2022-11-10T09:32:05.521Z,97901.59
2022-11-10T09:33:07.634Z,97902.41
2022-11-10T09:34:10.263Z,97900.94
2022-11-10T09:35:13.495Z,97910.03
2022-11-10T09:36:15.314Z,97911.34
2022-11-10T09:37:17.136Z,97910.84
2022-11-10T09:38:19.118Z,97917.69
2022-11-10T09:39:21.210Z,97910.72
2022-11-10T09:40:25.415Z,97904.53
2022-11-10T09:41:30.139Z,97911.22
2022-11-10T09:42:34.757Z,97912.19
2022-11-10T09:43:45.373Z,97915.28
2022-11-10T09:44:52.816Z,97910.56
2022-11-10T09:45:55.677Z,97911.38
2022-11-10T09:46:57.408Z,97912.34
2022-11-10T09:48:02.369Z,97909.88
2022-11-10T09:49:10.031Z,97909.88
2022-11-10T09:50:15.696Z,97909.88
2022-11-10T09:51:20.215Z,97911.38
2022-11-10T09:52:22.993Z,97916.41
2022-11-10T09:53:45.010Z,97914.63
2022-11-10T09:54:53.301Z,97925.53
2022-11-10T09:56:03.112Z,97930.53
2022-11-10T09:57:06.408Z,97929.72
2022-11-10T09:58:09.796Z,97920.97
2022-11-10T09:59:17.116Z,97919.97
2022-11-10T10:00:19.029Z,97932.00
2022-11-10T10:01:39.458Z,97933.75
2022-11-10T10:02:49.308Z,97938.50
2022-11-10T10:03:57.096Z,97932.16
2022-11-10T10:05:01.699Z,97935.06
2022-11-10T10:06:11.385Z,97931.19
2022-11-10T10:07:15.812Z,97941.28
2022-11-10T10:08:26.656Z,97938.34
2022-11-10T10:09:28.450Z,97939.00
2022-11-10T10:10:33.477Z,97945.19
2022-11-10T10:11:35.270Z,97941.78
2022-11-10T10:12:52.727Z,97947.78
2022-11-10T10:14:13.382Z,97951.34
2022-11-10T10:15:29.411Z,97944.88
2022-11-10T10:16:34.086Z,97945.53
2022-11-10T10:17:41.373Z,97949.56
2022-11-10T10:18:55.254Z,97946.81
2022-11-10T10:20:04.321Z,97957.22
2022-11-10T10:21:06.137Z,97951.19
2022-11-10T10:22:13.908Z,97953.63
2022-11-10T10:23:54.024Z,97944.38
2022-11-10T10:24:53.457Z,97949.41
2022-11-10T10:25:55.388Z,97962.75
2022-11-10T10:26:58.559Z,97965.34
2022-11-10T10:28:05.476Z,97961.59
2022-11-10T10:29:11.656Z,97958.84
2022-11-10T10:30:18.585Z,97963.88
2022-11-10T10:31:21.638Z,97955.28
2022-11-10T10:32:23.632Z,97950.06
2022-11-10T10:33:25.455Z,97956.88
2022-11-10T10:34:31.925Z,97951.69
2022-11-10T10:35:39.072Z,97953.47
2022-11-10T10:36:44.822Z,97949.56
2022-11-10T10:37:50.321Z,97948.28
2022-11-10T10:38:54.582Z,97955.44
2022-11-10T10:39:56.411Z,97965.69
2022-11-10T10:41:00.763Z,97967.28
2022-11-10T10:42:02.594Z,97971.34
2022-11-10T10:43:04.584Z,97965.34
2022-11-10T10:44:14.489Z,97967.94
2022-11-10T10:45:26.470Z,97965.34
2022-11-10T10:46:34.512Z,97974.78
2022-11-10T10:47:40.587Z,97975.75
2022-11-10T10:48:42.777Z,97977.38
2022-11-10T10:49:44.623Z,97980.63
2022-11-10T10:50:48.437Z,97976.25
2022-11-10T10:51:53.027Z,97980.00
2022-11-10T10:53:13.073Z,97982.09
2022-11-10T10:54:28.888Z,97984.84
2022-11-10T10:55:31.382Z,97978.84
2022-11-10T10:56:33.574Z,97990.06
2022-11-10T10:57:35.451Z,97983.88
2022-11-10T10:58:50.263Z,97983.69
2022-11-10T10:59:52.856Z,97983.41
2022-11-10T11:00:57.023Z,97982.41
2022-11-10T11:01:58.961Z,97989.09
2022-11-10T11:03:05.269Z,97992.50
2022-11-10T11:04:26.383Z,97989.09
2022-11-10T11:05:28.200Z,97989.56
2022-11-10T11:06:30.971Z,97992.81
2022-11-10T11:07:32.927Z,97989.09
2022-11-10T11:08:34.788Z,97991.69
2022-11-10T11:09:42.736Z,97981.09
2022-11-10T11:10:45.717Z,97986.16
2022-11-10T11:11:59.541Z,97986.00
2022-11-10T11:13:14.787Z,97987.13
2022-11-10T11:14:17.201Z,97987.94
2022-11-10T11:15:19.018Z,97994.44
2022-11-10T11:16:20.892Z,98001.09
2022-11-10T11:17:23.210Z,97991.53
2022-11-10T11:18:26.183Z,97987.13
2022-11-10T11:19:32.576Z,97986.97
2022-11-10T11:20:54.587Z,97983.53
2022-11-10T11:21:59.638Z,97989.38
2022-11-10T11:23:07.802Z,97992.81
2022-11-10T11:24:18.522Z,97995.25
2022-11-10T11:25:30.196Z,97983.22
2022-11-10T11:26:43.506Z,97981.78
2022-11-10T11:27:59.625Z,97988.59
2022-11-10T11:29:19.816Z,97983.53
2022-11-10T11:30:22.961Z,97987.63
2022-11-10T11:31:27.524Z,97989.72
2022-11-10T11:32:48.008Z,97985.16
2022-11-10T11:34:05.659Z,97985.47
2022-11-10T11:35:31.965Z,97983.34
2022-11-10T11:36:36.853Z,97981.41
2022-11-10T11:37:41.663Z,97990.66
2022-11-10T11:38:56.351Z,97986.44
2022-11-10T11:40:05.215Z,97990.84
2022-11-10T11:41:13.131Z,97990.50
2022-11-10T11:42:35.161Z,97988.53
2022-11-10T11:43:37.002Z,97995.88
2022-11-10T11:44:44.978Z,97992.28
2022-11-10T11:46:00.142Z,97991.47
2022-11-10T11:47:14.276Z,97999.44
2022-11-10T11:48:34.833Z,98000.44
2022-11-10T11:49:39.388Z,98006.31
2022-11-10T11:50:51.005Z,98000.91
2022-11-10T11:52:02.632Z,98001.75
2022-11-10T11:53:16.792Z,97998.28
2022-11-10T11:54:41.488Z,98006.59
2022-11-10T11:55:43.303Z,98012.13
2022-11-10T11:56:47.876Z,98010.97
2022-11-10T11:57:54.130Z,98005.28
2022-11-10T11:59:08.047Z,98012.56
2022-11-10T12:00:10.814Z,98007.88
2022-11-10T12:01:38.078Z,98007.88
2022-11-10T12:02:58.534Z,98015.03
2022-11-10T12:04:15.671Z,98014.06
2022-11-10T12:05:20.464Z,98014.72
2022-11-10T12:06:22.238Z,98011.94
2022-11-10T12:07:40.743Z,98009.97
2022-11-10T12:08:54.981Z,98005.91
2022-11-10T12:10:15.512Z,98007.06
2022-11-10T12:11:23.146Z,98011.78
2022-11-10T12:12:24.901Z,98011.94
2022-11-10T12:13:26.883Z,98017.34
2022-11-10T12:14:49.108Z,98015.88
2022-11-10T12:15:52.186Z,98017.34
2022-11-10T12:17:03.132Z,98017.00
2022-11-10T12:18:08.144Z,98017.00
2022-11-10T12:19:09.943Z,98011.78
2022-11-10T12:20:35.590Z,98018.63
2022-11-10T12:21:46.131Z,98020.91
2022-11-10T12:23:01.380Z,98021.22
2022-11-10T12:24:17.788Z,98024.47
2022-11-10T12:25:19.536Z,98019.25
2022-11-10T12:26:32.499Z,98019.25
2022-11-10T12:27:35.996Z,98010.47
2022-11-10T12:28:44.684Z,98014.50
2022-11-10T12:29:51.040Z,98021.19
2022-11-10T12:30:59.080Z,98025.78
2022-11-10T12:32:07.950Z,98019.91
2022-11-10T12:33:17.302Z,98021.53